Time;durP1;ratioP1;P1;durP2;ratioP2;P2;SDS_P1;SDS_P2;PMS_P1;PMS_P2;Temp;Humidity;BMP_temperature;BMP_pressure;BME280_temperature;BME280_humidity;BME280_pressure;Samples;Min_cycle;Max_cycle;Signal;HPM_P1;HPM_P2
2021/01/03 00:00:12;;;;;;;64.30;33.03;;;;;;;-2.01;100.00;94888.47;1031040;28;20068;-75
2021/01/03 00:00:43;;;;;;;72.50;33.15;;;;;;;-1.94;100.00;94878.97;1035165;28;20036;-75
2021/01/03 00:01:13;;;;;;;64.87;31.83;;;;;;;-1.96;100.00;94886.09;1039042;28;20060;-76
2021/01/03 00:01:44;;;;;;;59.77;29.97;;;;;;;-1.96;100.00;94891.22;1029086;28;20441;-76
2021/01/03 00:02:15;;;;;;;63.07;30.50;;;;;;;-1.96;100.00;94891.22;1026947;28;20121;-75
2021/01/03 00:02:45;;;;;;;62.50;32.17;;;;;;;-2.07;100.00;94886.75;1026760;28;20533;-74
2021/01/03 00:03:17;;;;;;;64.40;30.17;;;;;;;-2.05;100.00;94887.31;1026811;28;20031;-73
2021/01/03 00:03:47;;;;;;;61.60;30.05;;;;;;;-2.04;100.00;94881.97;1035081;28;20120;-73
2021/01/03 00:04:18;;;;;;;64.70;30.43;;;;;;;-2.14;100.00;94871.34;1030981;28;20038;-73
2021/01/03 00:04:48;;;;;;;65.13;31.17;;;;;;;-2.05;100.00;94877.03;1030405;28;20498;-74
2021/01/03 00:05:22;;;;;;;65.70;32.03;;;;;;;-2.12;100.00;94866.78;1026541;28;20801;-75
2021/01/03 00:05:53;;;;;;;67.60;31.92;;;;;;;-1.96;100.00;94881.72;1039512;28;20108;-74
2021/01/03 00:06:23;;;;;;;67.05;31.05;;;;;;;-2.02;100.00;94868.91;1043149;28;20037;-77
2021/01/03 00:06:54;;;;;;;64.30;30.90;;;;;;;-1.99;100.00;94871.06;1039164;28;20041;-75
2021/01/03 00:07:25;;;;;;;65.87;31.33;;;;;;;-1.95;100.00;94878.16;1030805;28;20068;-74
2021/01/03 00:07:55;;;;;;;63.63;29.67;;;;;;;-2.02;100.00;94872.25;1030703;28;20026;-75
2021/01/03 00:08:26;;;;;;;62.53;29.87;;;;;;;-1.98;100.00;94882.91;1029699;28;20026;-73
2021/01/03 00:08:56;;;;;;;68.50;32.43;;;;;;;-1.95;100.00;94883.28;1030911;28;20093;-74
2021/01/03 00:09:27;;;;;;;64.03;31.17;;;;;;;-2.16;100.00;94853.56;1034355;28;20033;-73
2021/01/03 00:09:57;;;;;;;61.50;29.23;;;;;;;-2.05;100.00;94862.41;1029414;28;20500;-74
2021/01/03 00:10:28;;;;;;;62.03;31.10;;;;;;;-2.00;100.00;94869.50;1035044;28;20038;-75
2021/01/03 00:10:58;;;;;;;61.33;29.50;;;;;;;-2.07;100.00;94848.19;1030797;28;20993;-73
2021/01/03 00:11:29;;;;;;;61.10;31.17;;;;;;;-1.99;100.00;94865.94;1022842;28;20031;-75
2021/01/03 00:11:59;;;;;;;66.03;31.13;;;;;;;-1.98;100.00;94867.50;1022719;29;20027;-76
2021/01/03 00:12:30;;;;;;;68.47;32.10;;;;;;;-1.93;100.00;94878.75;1030883;28;20401;-73
2021/01/03 00:13:00;;;;;;;64.60;32.03;;;;;;;-2.03;100.00;94869.91;1034703;28;20029;-75
2021/01/03 00:13:31;;;;;;;69.17;32.63;;;;;;;-1.91;100.00;94878.56;1034433;28;20049;-76
2021/01/03 00:14:02;;;;;;;56.80;30.63;;;;;;;-1.89;100.00;94876.56;1034971;28;20637;-74
2021/01/03 00:14:32;;;;;;;62.40;31.15;;;;;;;-2.07;100.00;94848.97;1030292;28;20514;-74
2021/01/03 00:15:05;;;;;;;64.73;32.20;;;;;;;-1.93;100.00;94870.25;1025992;28;20038;-75
2021/01/03 00:15:36;;;;;;;64.85;30.50;;;;;;;-1.93;100.00;94877.97;1022461;28;20027;-74
2021/01/03 00:16:06;;;;;;;60.53;29.53;;;;;;;-1.97;100.00;94877.59;1030657;28;20077;-74
2021/01/03 00:16:37;;;;;;;65.03;31.60;;;;;;;-2.06;100.00;94857.47;1031199;28;20026;-74
2021/01/03 00:17:07;;;;;;;70.30;31.73;;;;;;;-2.07;100.00;94861.81;1034997;28;20061;-74
2021/01/03 00:17:38;;;;;;;66.27;32.57;;;;;;;-2.06;100.00;94872.91;1021591;29;20034;-74
2021/01/03 00:18:09;;;;;;;63.92;33.05;;;;;;;-2.06;100.00;94872.91;1033979;28;20025;-75
2021/01/03 00:18:39;;;;;;;65.47;31.67;;;;;;;-2.05;100.00;94874.47;1034651;28;20030;-75
2021/01/03 00:19:10;;;;;;;70.30;32.53;;;;;;;-2.00;100.00;94870.28;1039253;28;20029;-73
2021/01/03 00:19:40;;;;;;;66.87;32.43;;;;;;;-2.09;100.00;94857.88;1030619;28;20038;-74
2021/01/03 00:20:16;;;;;;;68.17;33.40;;;;;;;-1.98;100.00;94882.91;1032328;28;20096;-75
2021/01/03 00:20:47;;;;;;;68.43;31.60;;;;;;;-2.07;100.00;94868.75;1034883;28;20053;-73
2021/01/03 00:21:17;;;;;;;69.60;31.60;;;;;;;-2.03;100.00;94868.13;1038859;28;20060;-77
2021/01/03 00:21:48;;;;;;;65.03;32.63;;;;;;;-2.09;100.00;94857.88;1027969;28;20137;-74
2021/01/03 00:22:19;;;;;;;72.13;34.05;;;;;;;-1.99;100.00;94876.22;1030884;28;20459;-74
2021/01/03 00:22:49;;;;;;;72.57;35.40;;;;;;;-2.01;100.00;94870.47;1034490;28;20042;-76
2021/01/03 00:23:20;;;;;;;71.43;33.97;;;;;;;-2.13;100.00;94853.16;1037576;28;20064;-75
2021/01/03 00:23:50;;;;;;;69.73;33.93;;;;;;;-2.00;100.00;94872.84;1030804;28;20030;-74
2021/01/03 00:24:21;;;;;;;68.33;33.50;;;;;;;-2.07;100.00;94854.13;1031007;28;20057;-77
2021/01/03 00:24:51;;;;;;;67.07;32.67;;;;;;;-2.07;100.00;94848.19;1030372;28;20042;-73
2021/01/03 00:25:24;;;;;;;66.37;31.40;;;;;;;-1.95;100.00;94862.72;1027098;28;20069;-73
2021/01/03 00:25:55;;;;;;;72.25;33.72;;;;;;;-1.93;100.00;94865.91;1026938;28;20038;-75
2021/01/03 00:26:25;;;;;;;73.27;34.40;;;;;;;-1.94;100.00;94860.97;1020706;28;20039;-75
2021/01/03 00:26:56;;;;;;;70.77;33.23;;;;;;;-1.87;100.00;94866.88;1023116;28;20028;-76
2021/01/03 00:27:26;;;;;;;63.37;32.17;;;;;;;-1.95;100.00;94861.94;1031091;28;20034;-75
2021/01/03 00:27:57;;;;;;;68.53;32.90;;;;;;;-1.93;100.00;94862.53;1031027;28;20030;-75
2021/01/03 00:28:27;;;;;;;64.77;32.97;;;;;;;-1.92;100.00;94866.69;1030215;28;20675;-74
2021/01/03 00:28:58;;;;;;;68.80;32.93;;;;;;;-1.91;100.00;94868.28;1030842;28;20237;-73
2021/01/03 00:29:28;;;;;;;68.23;33.77;;;;;;;-1.91;100.00;94863.91;1029676;28;20045;-74
2021/01/03 00:29:59;;;;;;;67.73;32.03;;;;;;;-1.92;100.00;94869.25;1034147;28;20029;-75
2021/01/03 00:30:29;;;;;;;70.73;32.93;;;;;;;-1.92;100.00;94866.69;1034437;28;20034;-76
2021/01/03 00:31:00;;;;;;;70.47;33.80;;;;;;;-1.91;100.00;94863.13;1030810;28;20030;-73
2021/01/03 00:31:30;;;;;;;71.57;34.07;;;;;;;-1.90;100.00;94869.84;1034767;28;20026;-73
2021/01/03 00:32:01;;;;;;;72.03;34.77;;;;;;;-1.91;100.00;94868.28;1030513;28;20035;-74
2021/01/03 00:32:31;;;;;;;71.67;33.80;;;;;;;-1.98;100.00;94862.34;1030631;28;20041;-76
2021/01/03 00:33:02;;;;;;;62.30;31.83;;;;;;;-1.94;100.00;94859.19;1030473;28;20069;-74
2021/01/03 00:33:32;;;;;;;70.37;33.10;;;;;;;-2.06;100.00;94847.97;1030187;28;20069;-72
2021/01/03 00:34:03;;;;;;;76.03;34.90;;;;;;;-1.92;100.00;94862.31;1034958;28;20033;-74
2021/01/03 00:34:34;;;;;;;67.75;33.70;;;;;;;-2.17;100.00;94828.88;1039049;28;20048;-74
2021/01/03 00:35:08;;;;;;;73.03;33.67;;;;;;;-2.03;100.00;94845.00;1041981;28;20606;-74
2021/01/03 00:35:39;;;;;;;71.97;33.17;;;;;;;-2.01;100.00;94852.50;1031019;28;20525;-74
2021/01/03 00:36:10;;;;;;;72.13;33.03;;;;;;;-2.09;100.00;94845.03;1030844;28;20037;-75
2021/01/03 00:36:41;;;;;;;68.38;32.83;;;;;;;-2.08;100.00;94847.38;1030846;28;20505;-73
2021/01/03 00:37:11;;;;;;;72.10;34.27;;;;;;;-1.98;100.00;94852.06;1026478;28;20130;-75
2021/01/03 00:37:42;;;;;;;71.23;32.57;;;;;;;-2.07;100.00;94848.19;1027333;28;20054;-75
2021/01/03 00:38:13;;;;;;;80.77;35.20;;;;;;;-2.07;100.00;94846.41;1026898;28;20084;-74
2021/01/03 00:38:44;;;;;;;69.38;33.20;;;;;;;-2.13;100.00;94840.31;1030203;28;20037;-75
2021/01/03 00:39:14;;;;;;;70.63;32.97;;;;;;;-2.11;100.00;94850.38;1036577;28;20052;-75
2021/01/03 00:39:45;;;;;;;76.93;35.87;;;;;;;-2.09;100.00;94845.03;1035013;28;20030;-74
2021/01/03 00:40:17;;;;;;;78.17;36.17;;;;;;;-2.07;100.00;94843.84;1039537;28;20489;-75
2021/01/03 00:40:47;;;;;;;77.20;35.22;;;;;;;-1.97;100.00;94859.59;1037008;28;20038;-76
2021/01/03 00:41:18;;;;;;;75.03;34.73;;;;;;;-1.96;100.00;94857.81;1034991;28;20053;-74
2021/01/03 00:41:49;;;;;;;67.33;32.93;;;;;;;-2.01;100.00;94849.91;1031131;28;20402;-75
2021/01/03 00:42:19;;;;;;;74.20;34.22;;;;;;;-2.04;100.00;94848.56;1026691;28;20520;-75
2021/01/03 00:42:50;;;;;;;72.27;34.93;;;;;;;-2.14;100.00;94836.16;1034779;28;20036;-74
2021/01/03 00:43:20;;;;;;;69.83;33.90;;;;;;;-1.94;100.00;94864.34;1031226;28;20050;-74
2021/01/03 00:43:51;;;;;;;67.47;32.00;;;;;;;-1.93;100.00;94859.97;1031878;28;20026;-73
2021/01/03 00:44:21;;;;;;;67.73;33.77;;;;;;;-1.93;100.00;94857.41;1031198;28;20050;-76
2021/01/03 00:44:52;;;;;;;73.20;34.07;;;;;;;-1.94;100.00;94863.53;1026262;28;20198;-76
2021/01/03 00:45:22;;;;;;;66.73;34.03;;;;;;;-1.98;100.00;94859.78;1030724;28;20026;-74
2021/01/03 00:45:53;;;;;;;68.37;33.53;;;;;;;-1.95;100.00;94867.09;1034445;28;20084;-75
2021/01/03 00:46:23;;;;;;;74.27;34.43;;;;;;;-2.22;100.00;94826.09;1035001;28;20112;-76
2021/01/03 00:46:54;;;;;;;75.93;34.60;;;;;;;-1.97;100.00;94863.97;1034681;28;20481;-77
2021/01/03 00:47:24;;;;;;;70.67;34.83;;;;;;;-1.95;100.00;94867.09;1029136;28;20049;-75
2021/01/03 00:47:57;;;;;;;67.43;33.77;;;;;;;-1.97;100.00;94858.81;1024316;28;20206;-75
2021/01/03 00:48:27;;;;;;;70.60;35.05;;;;;;;-1.99;100.00;94860.78;1027145;28;20504;-74
2021/01/03 00:48:58;;;;;;;75.47;34.50;;;;;;;-2.02;100.00;94867.13;1026643;28;20049;-75
2021/01/03 00:49:28;;;;;;;77.57;35.30;;;;;;;-2.07;100.00;94850.75;1030790;28;20030;-74
2021/01/03 00:49:58;;;;;;;84.03;37.07;;;;;;;-2.08;100.00;94852.53;1035111;28;20057;-75
2021/01/03 00:50:29;;;;;;;76.03;34.57;;;;;;;-2.00;100.00;94869.50;1038726;28;20033;-77
2021/01/03 00:51:00;;;;;;;76.50;34.73;;;;;;;-2.02;100.00;94866.34;1035758;28;20052;-74
2021/01/03 00:51:30;;;;;;;77.87;35.53;;;;;;;-2.05;100.00;94862.41;1028191;28;20509;-76
2021/01/03 00:52:01;;;;;;;77.10;36.27;;;;;;;-2.17;100.00;94846.84;1030801;28;20033;-73
2021/01/03 00:52:31;;;;;;;73.90;35.17;;;;;;;-2.03;100.00;94864.78;1033116;28;20542;-75
2021/01/03 00:53:02;;;;;;;81.33;36.23;;;;;;;-2.03;100.00;94854.50;1034782;28;20034;-75
2021/01/03 00:53:33;;;;;;;80.63;36.28;;;;;;;-2.08;100.00;94849.94;1034682;28;20033;-74
2021/01/03 00:54:03;;;;;;;76.53;35.67;;;;;;;-1.99;100.00;94868.50;1027022;28;20490;-73
2021/01/03 00:54:34;;;;;;;75.70;34.77;;;;;;;-1.99;100.00;94868.50;1022270;28;20327;-74
2021/01/03 00:55:06;;;;;;;75.30;34.47;;;;;;;-1.96;100.00;94865.53;1022122;29;20067;-73
2021/01/03 00:55:36;;;;;;;82.63;38.17;;;;;;;-1.96;100.00;94870.66;1022611;28;20023;-74
2021/01/03 00:56:06;;;;;;;72.70;35.83;;;;;;;-2.06;100.00;94852.34;1026371;28;20882;-74
2021/01/03 00:56:37;;;;;;;72.50;34.80;;;;;;;-2.00;100.00;94860.00;1022992;28;20031;-76
2021/01/03 00:57:07;;;;;;;79.43;36.13;;;;;;;-1.98;100.00;94872.66;1022780;28;20118;-74
2021/01/03 00:57:38;;;;;;;78.00;34.93;;;;;;;-2.07;100.00;94859.25;1025025;28;20027;-75
2021/01/03 00:58:08;;;;;;;74.43;36.87;;;;;;;-2.00;100.00;94874.66;1035034;28;20557;-73
2021/01/03 00:58:39;;;;;;;76.87;35.07;;;;;;;-2.08;100.00;94851.75;1034801;28;20022;-74
2021/01/03 00:59:09;;;;;;;75.33;35.73;;;;;;;-2.03;100.00;94869.91;1034756;28;20104;-75
2021/01/03 00:59:40;;;;;;;78.80;35.40;;;;;;;-1.97;100.00;94875.03;1022187;28;20027;-75
2021/01/03 01:00:31;;;;;;;70.10;33.77;;;;;;;-1.98;100.00;94872.66;1030807;28;20421;-76
2021/01/03 01:01:02;;;;;;;72.05;34.13;;;;;;;-2.08;100.00;94856.88;1030250;28;20038;-75
2021/01/03 01:01:32;;;;;;;72.77;34.40;;;;;;;-1.98;100.00;94872.66;1033963;28;20029;-75
2021/01/03 01:02:03;;;;;;;76.70;34.13;;;;;;;-2.05;100.00;94862.41;1032058;28;20038;-74
2021/01/03 01:02:34;;;;;;;76.73;35.43;;;;;;;-2.01;100.00;94878.19;1020113;28;20015;-74
2021/01/03 01:03:05;;;;;;;76.50;36.40;;;;;;;-2.08;100.00;94860.22;1026589;28;20399;-74
2021/01/03 01:03:36;;;;;;;81.13;37.80;;;;;;;-1.96;100.00;94874.03;1038510;28;20069;-74
2021/01/03 01:04:06;;;;;;;85.40;37.70;;;;;;;-1.99;100.00;94871.06;1034858;28;20474;-75
2021/01/03 01:04:37;;;;;;;78.07;36.27;;;;;;;-2.00;100.00;94870.28;1034486;28;21263;-74
2021/01/03 01:05:07;;;;;;;83.40;36.87;;;;;;;-2.05;100.00;94874.47;1030258;28;20022;-74
2021/01/03 01:05:38;;;;;;;77.97;36.17;;;;;;;-2.01;100.00;94870.47;1022593;28;20415;-75
2021/01/03 01:06:08;;;;;;;75.80;36.93;;;;;;;-1.98;100.00;94875.22;1029021;28;20070;-75
2021/01/03 01:06:39;;;;;;;73.67;34.73;;;;;;;-2.01;100.00;94870.47;1031030;28;20026;-74
2021/01/03 01:07:09;;;;;;;80.93;36.10;;;;;;;-2.01;100.00;94873.06;1034721;28;20297;-74
2021/01/03 01:07:40;;;;;;;83.80;38.10;;;;;;;-2.03;100.00;94869.91;1031801;28;20027;-74
2021/01/03 01:08:11;;;;;;;76.97;36.03;;;;;;;-2.07;100.00;94877.25;1022816;28;20147;-75
2021/01/03 01:08:41;;;;;;;86.43;36.97;;;;;;;-2.06;100.00;94865.19;1022893;28;20642;-74
2021/01/03 01:09:12;;;;;;;81.43;36.30;;;;;;;-2.00;100.00;94879.78;1022953;28;20019;-75
2021/01/03 01:09:42;;;;;;;81.23;37.43;;;;;;;-2.04;100.00;94876.84;1030360;28;20018;-73
2021/01/03 01:10:16;;;;;;;75.13;36.53;;;;;;;-2.07;100.00;94869.53;1030879;28;20420;-75
2021/01/03 01:10:46;;;;;;;83.90;38.95;;;;;;;-2.10;100.00;94864.03;1031300;28;20014;-74
2021/01/03 01:11:17;;;;;;;78.30;37.30;;;;;;;-2.07;100.00;94863.63;1032955;28;20053;-74
2021/01/03 01:11:47;;;;;;;79.37;37.37;;;;;;;-2.01;100.00;94873.88;1030116;28;20489;-74
2021/01/03 01:12:18;;;;;;;77.37;36.20;;;;;;;-2.02;100.00;94872.25;1030618;28;20109;-74
2021/01/03 01:12:49;;;;;;;77.37;36.93;;;;;;;-2.00;100.00;94882.34;1030861;28;20118;-75
2021/01/03 01:13:20;;;;;;;82.03;38.90;;;;;;;-2.03;100.00;94875.06;1030497;28;20034;-75
2021/01/03 01:13:50;;;;;;;80.73;37.43;;;;;;;-2.09;100.00;94865.59;1034720;28;20034;-74
2021/01/03 01:14:21;;;;;;;73.07;35.23;;;;;;;-2.03;100.00;94875.06;1038579;28;20524;-74
2021/01/03 01:14:51;;;;;;;82.27;37.20;;;;;;;-2.04;100.00;94866.56;1031089;28;20022;-75
2021/01/03 01:15:22;;;;;;;79.20;37.60;;;;;;;-2.07;100.00;94873.91;1034528;28;20018;-72
2021/01/03 01:15:52;;;;;;;80.57;35.57;;;;;;;-2.05;100.00;94866.75;1022666;28;20698;-72
2021/01/03 01:16:23;;;;;;;77.20;37.27;;;;;;;-2.12;100.00;94848.78;1026389;28;20069;-76
2021/01/03 01:16:53;;;;;;;75.67;35.67;;;;;;;-1.99;100.00;94873.66;1022571;28;20051;-74
2021/01/03 01:17:24;;;;;;;78.53;36.97;;;;;;;-2.08;100.00;94869.72;1022821;28;20028;-74
2021/01/03 01:17:55;;;;;;;86.40;38.97;;;;;;;-2.02;100.00;94872.25;1026617;28;20083;-74
2021/01/03 01:18:26;;;;;;;76.97;36.38;;;;;;;-2.15;100.00;94850.00;1029061;28;20154;-74
2021/01/03 01:18:56;;;;;;;68.53;35.47;;;;;;;-2.13;100.00;94860.84;1034792;28;20030;-73
2021/01/03 01:19:27;;;;;;;90.07;39.00;;;;;;;-2.05;100.00;94861.59;1030208;28;20478;-74
2021/01/03 01:19:57;;;;;;;89.13;38.20;;;;;;;-2.09;100.00;94865.59;1031392;28;20038;-74
2021/01/03 01:20:28;;;;;;;80.00;37.97;;;;;;;-2.11;100.00;94870.94;1034451;28;20056;-74
2021/01/03 01:20:59;;;;;;;79.23;37.10;;;;;;;-2.11;100.00;94870.94;1022612;28;20065;-74
2021/01/03 01:21:29;;;;;;;81.10;37.33;;;;;;;-2.10;100.00;94869.94;1025655;28;20258;-74
2021/01/03 01:21:59;;;;;;;83.93;38.23;;;;;;;-2.15;100.00;94868.00;1026605;28;20121;-74
2021/01/03 01:22:30;;;;;;;78.23;37.07;;;;;;;-2.15;100.00;94878.28;1030686;28;20027;-74
2021/01/03 01:23:01;;;;;;;81.57;38.03;;;;;;;-2.12;100.00;94871.91;1038668;28;20025;-75
2021/01/03 01:23:31;;;;;;;82.33;38.60;;;;;;;-2.12;100.00;94871.91;1034493;28;20022;-74
2021/01/03 01:24:02;;;;;;;78.97;37.53;;;;;;;-2.13;100.00;94876.28;1034721;28;20053;-73
2021/01/03 01:24:32;;;;;;;80.73;38.03;;;;;;;-2.18;100.00;94867.59;1038567;28;20024;-72
2021/01/03 01:25:04;;;;;;;84.07;39.37;;;;;;;-2.24;100.00;94858.94;1029817;28;20037;-75
2021/01/03 01:25:35;;;;;;;81.50;37.75;;;;;;;-2.25;100.00;94859.91;1022441;28;20117;-74
2021/01/03 01:26:05;;;;;;;82.87;38.37;;;;;;;-2.13;100.00;94876.28;1026558;28;20454;-76
2021/01/03 01:26:35;;;;;;;87.60;40.10;;;;;;;-2.16;100.00;94870.75;1029336;28;20069;-75
2021/01/03 01:27:06;;;;;;;83.87;38.53;;;;;;;-2.12;100.00;94877.06;1030615;28;20022;-74
2021/01/03 01:27:36;;;;;;;82.10;37.27;;;;;;;-2.13;100.00;94876.28;1034759;28;20037;-74
2021/01/03 01:28:07;;;;;;;88.97;39.03;;;;;;;-2.10;100.00;94877.66;1036736;28;20026;-74
2021/01/03 01:28:37;;;;;;;82.33;36.77;;;;;;;-2.16;100.00;94878.47;1034103;28;20690;-74
2021/01/03 01:29:08;;;;;;;86.07;38.70;;;;;;;-2.14;100.00;94869.56;1029191;28;20033;-74
2021/01/03 01:29:38;;;;;;;91.13;40.37;;;;;;;-2.22;100.00;94856.94;1030271;28;20109;-75
2021/01/03 01:30:09;;;;;;;79.77;37.40;;;;;;;-2.23;100.00;94857.94;1030446;28;20100;-72
2021/01/03 01:30:40;;;;;;;85.30;38.55;;;;;;;-2.20;100.00;94862.66;1030486;28;20022;-74
2021/01/03 01:31:10;;;;;;;87.50;39.60;;;;;;;-2.13;100.00;94870.34;1026635;28;20031;-75
2021/01/03 01:31:41;;;;;;;82.13;38.47;;;;;;;-2.22;100.00;94859.50;1025860;28;20093;-75
2021/01/03 01:32:11;;;;;;;76.70;37.53;;;;;;;-2.20;100.00;94869.59;1030803;28;20023;-75
2021/01/03 01:32:42;;;;;;;86.23;39.10;;;;;;;-2.11;100.00;94873.53;1039047;28;20013;-73
2021/01/03 01:33:12;;;;;;;95.63;39.50;;;;;;;-2.07;100.00;94873.91;1034427;28;20046;-74
2021/01/03 01:33:43;;;;;;;82.57;38.30;;;;;;;-2.07;100.00;94884.97;1034806;28;20026;-73
2021/01/03 01:34:13;;;;;;;80.93;38.17;;;;;;;-2.09;100.00;94878.44;1034722;28;20038;-76
2021/01/03 01:34:44;;;;;;;83.37;38.03;;;;;;;-2.35;100.00;94835.66;1034792;28;20054;-75
2021/01/03 01:35:17;;;;;;;88.93;38.60;;;;;;;-2.22;100.00;94862.06;1043502;28;20021;-73
2021/01/03 01:35:47;;;;;;;86.63;39.05;;;;;;;-2.19;100.00;94860.88;1043428;28;20017;-74
2021/01/03 01:36:18;;;;;;;85.43;38.27;;;;;;;-2.20;100.00;94862.66;1042544;28;20029;-74
2021/01/03 01:36:48;;;;;;;83.00;37.33;;;;;;;-2.09;100.00;94878.44;1034545;28;20022;-76
2021/01/03 01:37:19;;;;;;;82.83;38.27;;;;;;;-2.12;100.00;94882.19;1026680;28;20118;-75
2021/01/03 01:37:49;;;;;;;88.27;37.37;;;;;;;-2.22;100.00;94863.88;1026921;28;20031;-74
2021/01/03 01:38:20;;;;;;;80.87;37.60;;;;;;;-2.07;100.00;94879.03;1026647;28;20015;-74
2021/01/03 01:38:50;;;;;;;92.70;40.03;;;;;;;-2.05;100.00;94877.03;1032152;28;20034;-75
2021/01/03 01:39:21;;;;;;;86.97;39.97;;;;;;;-2.08;100.00;94880.00;1038736;28;20108;-75
2021/01/03 01:39:52;;;;;;;79.77;37.97;;;;;;;-2.18;100.00;94863.28;1034777;28;20537;-75
2021/01/03 01:40:28;;;;;;;78.83;38.57;;;;;;;-2.05;100.00;94877.03;1026649;28;20184;-74
2021/01/03 01:40:59;;;;;;;83.95;38.00;;;;;;;-2.09;100.00;94871.50;1031660;28;20501;-74
2021/01/03 01:41:29;;;;;;;80.50;36.83;;;;;;;-2.17;100.00;94871.75;1034674;28;20037;-75
2021/01/03 01:42:00;;;;;;;78.00;36.80;;;;;;;-2.06;100.00;94885.75;1034616;28;20092;-74
2021/01/03 01:42:30;;;;;;;81.33;37.83;;;;;;;-2.07;100.00;94884.97;1026850;28;20027;-75
2021/01/03 01:43:01;;;;;;;81.93;38.53;;;;;;;-2.03;100.00;94875.06;1030764;28;20194;-75
2021/01/03 01:43:31;;;;;;;81.33;37.33;;;;;;;-2.15;100.00;94862.88;1030753;28;20150;-75
2021/01/03 01:44:03;;;;;;;74.50;37.43;;;;;;;-2.02;100.00;94882.53;1034486;28;20032;-74
2021/01/03 01:44:33;;;;;;;79.20;36.83;;;;;;;-2.18;100.00;94860.69;1034652;28;20026;-76
2021/01/03 01:45:06;;;;;;;81.93;38.70;;;;;;;-2.08;100.00;94880.00;1026127;28;20666;-74
2021/01/03 01:45:39;;;;;;;88.32;38.15;;;;;;;-2.13;100.00;94866.00;1024562;28;20180;-75
2021/01/03 01:46:27;;;;;;;88.53;40.28;;;;;;;-1.99;100.00;94886.50;1038812;28;20104;-74
2021/01/03 01:47:05;;;;;;;78.28;36.25;;;;;;;-1.99;100.00;94882.13;1034917;28;20472;-75
2021/01/03 01:47:38;;;;;;;77.78;36.15;;;;;;;-2.01;100.00;94884.16;1032639;28;20025;-74
2021/01/03 01:48:28;;;;;;;86.65;37.15;;;;;;;-1.97;100.00;94884.53;1034483;28;20087;-75
2021/01/03 01:48:58;;;;;;;90.97;39.03;;;;;;;-1.98;100.00;94882.91;1030308;28;20261;-75
2021/01/03 01:49:29;;;;;;;83.67;36.87;;;;;;;-2.07;100.00;94861.03;1026314;28;20117;-74
2021/01/03 01:50:01;;;;;;;86.17;38.67;;;;;;;-1.97;100.00;94876.81;1034956;28;20509;-74
2021/01/03 01:50:38;;;;;;;85.43;37.92;;;;;;;-1.99;100.00;94886.50;1032473;28;20489;-75
2021/01/03 01:51:19;;;;;;;75.88;36.40;;;;;;;-1.95;100.00;94880.72;1025901;28;20094;-75
2021/01/03 01:51:50;;;;;;;85.55;37.33;;;;;;;-2.21;100.00;94847.47;1033562;28;20021;-74
2021/01/03 01:52:21;;;;;;;84.27;38.37;;;;;;;-2.09;100.00;94868.16;1030650;28;20042;-76
2021/01/03 01:52:53;;;;;;;74.70;34.70;;;;;;;-2.03;100.00;94880.97;1030392;28;20037;-74
2021/01/03 01:53:42;;;;;;;78.65;38.55;;;;;;;-2.00;100.00;94887.50;1032168;28;20383;-75
2021/01/03 01:54:31;;;;;;;70.18;33.15;;;;;;;-1.98;100.00;94877.78;1030936;28;20033;-74
2021/01/03 01:55:04;;;;;;;78.13;35.42;;;;;;;-1.97;100.00;94879.38;1033861;28;20069;-75
2021/01/03 01:55:40;;;;;;;77.68;35.30;;;;;;;-1.99;100.00;94886.50;1030076;28;20385;-76
2021/01/03 01:56:22;;;;;;;79.97;35.45;;;;;;;-2.09;100.00;94873.31;1026602;28;20041;-76
2021/01/03 01:57:11;;;;;;;82.00;36.08;;;;;;;-2.15;100.00;94868.00;1030600;28;20022;-74
2021/01/03 01:58:07;;;;;;;86.55;35.88;;;;;;;-2.09;100.00;94886.94;1037916;28;20088;-73
2021/01/03 01:58:49;;;;;;;74.10;34.05;;;;;;;-2.19;100.00;94884.78;1033359;28;20489;-75
2021/01/03 01:59:32;;;;;;;88.00;37.17;;;;;;;-2.16;100.00;94892.09;1023483;28;20042;-73
2021/01/03 02:00:20;;;;;;;77.28;34.97;;;;;;;-2.17;100.00;94885.38;1022593;29;20055;-74
2021/01/03 02:00:56;;;;;;;81.15;36.05;;;;;;;-2.23;100.00;94870.00;1022912;28;20038;-76
2021/01/03 02:01:50;;;;;;;75.75;34.88;;;;;;;-2.14;100.00;94890.13;1033631;28;20547;-76
2021/01/03 02:02:32;;;;;;;79.65;35.95;;;;;;;-2.15;100.00;94890.31;1030709;28;20023;-75
2021/01/03 02:03:11;;;;;;;85.53;36.75;;;;;;;-2.25;100.00;94880.47;1032354;28;20034;-76
2021/01/03 02:04:23;;;;;;;79.03;35.20;;;;;;;-2.11;100.00;94882.97;1029748;28;20039;-74
2021/01/03 02:05:16;;;;;;;72.85;32.60;;;;;;;-2.15;100.00;94891.13;1024757;28;20026;-75
2021/01/03 02:05:52;;;;;;;74.07;34.78;;;;;;;-2.16;100.00;94888.75;1021015;28;20575;-74
2021/01/03 02:06:30;;;;;;;81.65;35.35;;;;;;;-2.17;100.00;94895.66;1034555;28;20030;-75
2021/01/03 02:07:08;;;;;;;85.43;36.85;;;;;;;-2.17;100.00;94890.53;1034739;28;20125;-74
2021/01/03 02:07:46;;;;;;;83.13;36.75;;;;;;;-2.18;100.00;94896.66;1026623;28;20018;-74
2021/01/03 02:08:37;;;;;;;86.50;36.60;;;;;;;-2.17;100.00;94892.31;1022577;29;20034;-74
2021/01/03 02:09:28;;;;;;;85.13;36.63;;;;;;;-2.31;100.00;94881.31;1030726;28;20595;-74
2021/01/03 02:10:17;;;;;;;92.25;37.00;;;;;;;-2.21;100.00;94897.06;1038633;28;20093;-74
2021/01/03 02:10:48;;;;;;;88.95;38.90;;;;;;;-2.31;100.00;94889.00;1035436;28;20018;-74
2021/01/03 02:11:22;;;;;;;86.97;36.45;;;;;;;-2.30;100.00;94880.31;1026556;28;20749;-76
2021/01/03 02:12:12;;;;;;;83.50;37.50;;;;;;;-2.20;100.00;94901.22;1033814;28;20034;-76
2021/01/03 02:12:46;;;;;;;83.70;37.28;;;;;;;-2.22;100.00;94897.25;1030639;28;20061;-75
2021/01/03 02:13:16;;;;;;;76.90;35.25;;;;;;;-2.21;100.00;94897.06;1033824;28;20064;-74
2021/01/03 02:13:49;;;;;;;78.87;36.60;;;;;;;-2.34;100.00;94874.00;1031510;28;20457;-76
2021/01/03 02:14:19;;;;;;;86.13;37.67;;;;;;;-2.20;100.00;94896.06;1039808;28;20022;-73
2021/01/03 02:14:49;;;;;;;86.17;40.10;;;;;;;-2.26;100.00;94894.31;1042547;28;20037;-74
2021/01/03 02:15:25;;;;;;;79.27;36.10;;;;;;;-2.28;100.00;94883.47;1038501;28;20125;-73
2021/01/03 02:15:58;;;;;;;88.60;37.25;;;;;;;-2.27;100.00;94890.19;1033219;28;20026;-74
2021/01/03 02:16:33;;;;;;;86.70;39.53;;;;;;;-2.22;100.00;94898.03;1034270;28;20037;-75
2021/01/03 02:17:06;;;;;;;87.47;38.60;;;;;;;-2.23;100.00;94886.19;1028397;28;20037;-74
2021/01/03 02:17:36;;;;;;;93.25;38.75;;;;;;;-2.20;100.00;94890.94;1024707;28;20049;-75
2021/01/03 02:18:08;;;;;;;83.40;39.60;;;;;;;-2.14;100.00;94895.25;1034707;28;20037;-76
2021/01/03 02:18:38;;;;;;;76.72;35.72;;;;;;;-2.20;100.00;94885.78;1038477;28;20029;-75
2021/01/03 02:19:15;;;;;;;83.90;38.43;;;;;;;-2.10;100.00;94894.84;1027930;28;20502;-75
2021/01/03 02:19:46;;;;;;;91.68;37.97;;;;;;;-2.17;100.00;94885.38;1030535;28;20144;-74
2021/01/03 02:20:16;;;;;;;85.60;38.40;;;;;;;-2.11;100.00;94893.25;1030764;28;20022;-74
2021/01/03 02:21:10;;;;;;;81.10;37.67;;;;;;;-2.09;100.00;94891.28;1037263;28;20084;-74
2021/01/03 02:21:46;;;;;;;81.32;35.10;;;;;;;-2.12;100.00;94892.47;1030337;28;20026;-76
2021/01/03 02:22:28;;;;;;;82.70;37.15;;;;;;;-2.22;100.00;94879.28;1026574;28;20034;-75
2021/01/03 02:23:02;;;;;;;81.75;36.17;;;;;;;-2.13;100.00;94896.84;1042768;28;20025;-75
2021/01/03 02:23:49;;;;;;;90.20;38.05;;;;;;;-2.12;100.00;94897.63;1037854;28;20029;-74
2021/01/03 02:24:43;;;;;;;90.85;39.08;;;;;;;-2.09;100.00;94899.00;1036658;28;20371;-73
2021/01/03 02:25:13;;;;;;;87.70;37.47;;;;;;;-2.10;100.00;94895.66;1028093;28;20022;-75
2021/01/03 02:25:44;;;;;;;86.73;37.13;;;;;;;-2.08;100.00;94895.44;1027146;28;20042;-73
2021/01/03 02:26:14;;;;;;;87.40;38.33;;;;;;;-2.12;100.00;94897.63;1030002;28;20053;-75
2021/01/03 02:26:47;;;;;;;93.57;38.30;;;;;;;-2.23;100.00;94878.50;1022313;28;20491;-75
2021/01/03 02:27:27;;;;;;;85.47;38.40;;;;;;;-2.18;100.00;94888.97;1030652;28;20109;-75
2021/01/03 02:28:18;;;;;;;81.68;36.65;;;;;;;-2.14;100.00;94887.56;1038542;28;20436;-74
2021/01/03 02:28:49;;;;;;;89.30;39.08;;;;;;;-2.17;100.00;94882.81;1034300;28;20037;-75
2021/01/03 02:29:19;;;;;;;87.97;37.17;;;;;;;-2.14;100.00;94890.13;1023636;28;20434;-75